createdAt,value
2017-10-31T00:00:34.952Z,3.30
2017-10-31T00:03:03.268Z,3.30
2017-10-31T00:05:31.593Z,3.30
2017-10-31T00:07:59.874Z,3.30
2017-10-31T00:10:29.095Z,3.40
2017-10-31T00:12:57.403Z,3.30
2017-10-31T00:15:26.488Z,3.20
2017-10-31T00:17:54.778Z,3.20
2017-10-31T00:20:23.110Z,3.30
2017-10-31T00:22:51.399Z,3.30
2017-10-31T00:25:19.706Z,3.30
2017-10-31T00:27:48.032Z,3.30
2017-10-31T00:30:16.320Z,3.30
2017-10-31T00:32:44.634Z,3.30
2017-10-31T00:35:13.704Z,3.20
2017-10-31T00:37:42.029Z,3.20
2017-10-31T00:40:11.083Z,3.30
2017-10-31T00:42:39.387Z,3.30
2017-10-31T00:45:07.674Z,3.20
2017-10-31T00:47:35.964Z,3.30
2017-10-31T00:50:04.295Z,3.30
2017-10-31T00:52:33.371Z,3.30
2017-10-31T00:55:01.720Z,3.30
2017-10-31T00:57:30.047Z,3.30
2017-10-31T00:59:58.353Z,3.30
2017-10-31T01:02:26.653Z,3.30
2017-10-31T01:04:55.729Z,3.30
2017-10-31T01:07:24.021Z,3.30
2017-10-31T01:09:52.338Z,3.30
2017-10-31T01:12:21.396Z,3.40
2017-10-31T01:14:49.705Z,3.40
2017-10-31T01:17:17.992Z,3.40
2017-10-31T01:19:46.303Z,3.50
2017-10-31T01:22:15.361Z,3.40
2017-10-31T01:24:43.686Z,3.40
2017-10-31T01:27:11.983Z,3.40
2017-10-31T01:29:40.288Z,3.40
2017-10-31T01:32:09.376Z,3.40
2017-10-31T01:34:37.659Z,3.40
2017-10-31T01:37:05.991Z,3.40
2017-10-31T01:39:34.314Z,3.50
2017-10-31T01:42:02.610Z,3.50
2017-10-31T01:44:30.915Z,3.50
2017-10-31T01:46:59.237Z,3.50
2017-10-31T01:49:28.300Z,3.50
2017-10-31T01:51:56.611Z,3.50
2017-10-31T01:54:24.924Z,3.50
2017-10-31T01:56:53.211Z,3.50
2017-10-31T01:59:21.519Z,3.40
2017-10-31T02:01:49.803Z,3.50
2017-10-31T02:04:18.116Z,3.50
2017-10-31T02:06:46.439Z,3.40
2017-10-31T02:09:14.722Z,3.40
2017-10-31T02:11:43.012Z,3.40
2017-10-31T02:14:11.307Z,3.40
2017-10-31T02:16:39.635Z,3.40
2017-10-31T02:19:08.679Z,3.40
2017-10-31T02:21:36.977Z,3.40
2017-10-31T02:24:05.263Z,3.50
2017-10-31T02:26:33.591Z,3.50
2017-10-31T02:29:02.642Z,3.40
2017-10-31T02:31:30.923Z,3.40
2017-10-31T02:33:59.233Z,3.40
2017-10-31T02:36:27.557Z,3.50
2017-10-31T02:39:08.473Z,3.40
2017-10-31T02:41:36.774Z,3.40
2017-10-31T02:44:05.078Z,3.40
2017-10-31T02:46:33.409Z,3.40
2017-10-31T02:49:02.457Z,3.40
2017-10-31T02:51:30.799Z,3.40
2017-10-31T02:53:59.093Z,3.40
2017-10-31T02:56:27.370Z,3.30
2017-10-31T02:58:55.714Z,3.30
2017-10-31T03:01:24.025Z,3.20
2017-10-31T03:03:52.345Z,3.30
2017-10-31T03:06:20.619Z,3.30
2017-10-31T03:08:48.907Z,3.30
2017-10-31T03:11:17.179Z,3.30
2017-10-31T03:13:45.454Z,3.30
2017-10-31T03:16:13.722Z,3.30
2017-10-31T03:18:42.043Z,3.30
2017-10-31T03:21:10.318Z,3.30
2017-10-31T03:23:38.648Z,3.30
2017-10-31T03:26:07.010Z,3.30
2017-10-31T03:28:35.372Z,3.30
2017-10-31T03:31:03.725Z,3.40
2017-10-31T03:33:32.865Z,3.20
2017-10-31T03:36:01.217Z,3.20
2017-10-31T03:38:29.583Z,3.20
2017-10-31T03:40:57.936Z,3.10
2017-10-31T03:43:26.300Z,3.20
2017-10-31T03:45:55.412Z,3.10
2017-10-31T03:48:23.792Z,3.00
2017-10-31T03:50:52.110Z,3.10
2017-10-31T03:53:20.461Z,3.10
2017-10-31T03:55:48.760Z,3.10
2017-10-31T03:58:17.818Z,3.10
2017-10-31T04:00:46.171Z,3.10
2017-10-31T04:03:15.214Z,3.10
2017-10-31T04:05:43.497Z,3.10
2017-10-31T04:08:11.780Z,3.20
2017-10-31T04:10:40.099Z,3.20
2017-10-31T04:13:08.403Z,3.20
2017-10-31T04:15:36.698Z,3.20
2017-10-31T04:18:04.975Z,3.20
2017-10-31T04:20:33.291Z,3.20
2017-10-31T04:23:02.370Z,3.20
2017-10-31T04:25:30.670Z,3.20
2017-10-31T04:27:58.974Z,3.10
2017-10-31T04:30:28.046Z,3.00
2017-10-31T04:32:56.355Z,3.00
2017-10-31T04:35:24.641Z,3.00
2017-10-31T04:37:52.935Z,3.10
2017-10-31T04:40:21.251Z,3.00
2017-10-31T04:42:50.295Z,3.10
2017-10-31T04:45:18.628Z,3.10
2017-10-31T04:47:46.902Z,3.10
2017-10-31T04:50:15.197Z,3.10
2017-10-31T04:52:43.484Z,3.10
2017-10-31T04:55:11.791Z,3.10
2017-10-31T04:57:40.155Z,3.10
2017-10-31T05:00:08.485Z,3.20
2017-10-31T05:02:36.893Z,3.20
2017-10-31T05:05:05.264Z,3.20
2017-10-31T05:07:33.588Z,3.20
2017-10-31T05:10:01.962Z,3.20
2017-10-31T05:12:30.360Z,3.20
2017-10-31T05:14:58.705Z,3.10
2017-10-31T05:17:27.863Z,3.10
2017-10-31T05:19:56.221Z,3.10
2017-10-31T05:22:24.618Z,3.10
2017-10-31T05:24:52.913Z,3.20
2017-10-31T05:27:21.220Z,3.20
2017-10-31T05:29:49.527Z,3.20
2017-10-31T05:32:17.827Z,3.20
2017-10-31T05:34:46.131Z,3.20
2017-10-31T05:37:15.181Z,3.10
2017-10-31T05:39:43.485Z,3.10
2017-10-31T05:42:11.802Z,3.20
2017-10-31T05:44:40.094Z,3.20
2017-10-31T05:47:08.405Z,3.20
2017-10-31T05:49:37.478Z,3.30
2017-10-31T05:52:05.767Z,3.20
2017-10-31T05:54:34.070Z,3.20
2017-10-31T05:57:02.444Z,3.20
2017-10-31T05:59:30.743Z,3.10
2017-10-31T06:01:59.024Z,3.10
2017-10-31T06:04:27.313Z,3.10
2017-10-31T06:06:55.649Z,3.10
2017-10-31T06:09:24.691Z,3.10
2017-10-31T06:11:52.983Z,3.10
2017-10-31T06:14:21.302Z,3.10
2017-10-31T06:16:49.629Z,3.20
2017-10-31T06:19:17.920Z,3.20
2017-10-31T06:21:51.804Z,3.20
2017-10-31T06:24:25.664Z,3.20
2017-10-31T06:26:59.554Z,3.20
2017-10-31T06:29:34.199Z,3.20
2017-10-31T06:32:09.084Z,3.20
2017-10-31T06:34:37.373Z,3.20
2017-10-31T06:37:05.664Z,3.20
2017-10-31T06:39:33.996Z,3.20
2017-10-31T06:42:02.287Z,3.20
2017-10-31T06:44:30.619Z,3.20
2017-10-31T06:46:58.924Z,3.20
2017-10-31T06:49:27.531Z,3.30
2017-10-31T06:51:56.668Z,3.40
2017-10-31T06:54:25.747Z,3.40
2017-10-31T06:56:54.039Z,3.40
2017-10-31T06:59:22.334Z,3.40
2017-10-31T07:01:50.647Z,3.40
2017-10-31T07:04:18.923Z,3.40
2017-10-31T07:06:47.260Z,3.40
2017-10-31T07:09:15.551Z,3.40
2017-10-31T07:11:43.839Z,3.40
2017-10-31T07:14:12.138Z,3.40
2017-10-31T07:16:40.476Z,3.40
2017-10-31T07:19:08.758Z,3.50
2017-10-31T07:21:37.098Z,3.50
2017-10-31T07:24:05.379Z,3.50
2017-10-31T07:26:34.451Z,3.50
2017-10-31T07:29:02.720Z,3.50
2017-10-31T07:31:31.002Z,3.60
2017-10-31T07:33:59.315Z,3.60
2017-10-31T07:36:28.938Z,3.60
2017-10-31T07:38:57.295Z,3.60
2017-10-31T07:41:25.596Z,3.50
2017-10-31T07:43:53.990Z,3.60
2017-10-31T07:46:22.272Z,3.60
2017-10-31T07:48:50.560Z,3.70
2017-10-31T07:51:18.892Z,3.80
2017-10-31T07:53:47.947Z,3.90
2017-10-31T07:56:16.236Z,3.90
2017-10-31T07:58:44.520Z,3.90
2017-10-31T08:01:13.208Z,3.80
2017-10-31T08:03:41.564Z,3.80
2017-10-31T08:06:10.630Z,3.80
2017-10-31T08:08:38.910Z,3.80
2017-10-31T08:11:07.191Z,4.00
2017-10-31T08:13:35.511Z,4.00
2017-10-31T08:16:03.811Z,4.10
2017-10-31T08:18:32.118Z,4.10
2017-10-31T08:21:00.420Z,4.10
2017-10-31T08:23:29.481Z,4.30
2017-10-31T08:25:57.826Z,4.30
2017-10-31T08:28:26.162Z,4.40
2017-10-31T08:30:54.464Z,4.40
2017-10-31T08:33:22.763Z,4.40
2017-10-31T08:35:51.074Z,4.50
2017-10-31T08:38:20.143Z,4.40
2017-10-31T08:40:48.457Z,4.40
2017-10-31T08:43:17.524Z,4.60
2017-10-31T08:45:45.841Z,4.60
2017-10-31T08:48:14.114Z,4.70
2017-10-31T08:50:42.446Z,4.70
2017-10-31T08:53:11.497Z,5.00
2017-10-31T08:55:39.782Z,5.00
2017-10-31T08:58:08.088Z,5.10
2017-10-31T09:00:36.387Z,5.20
2017-10-31T09:03:04.743Z,5.30
2017-10-31T09:05:33.094Z,5.40
2017-10-31T09:08:02.147Z,5.20
2017-10-31T09:10:30.480Z,5.20
2017-10-31T09:12:59.775Z,5.30
2017-10-31T09:15:28.976Z,5.30
2017-10-31T09:17:57.316Z,5.30
2017-10-31T09:20:25.658Z,5.20
2017-10-31T09:22:53.931Z,5.20
2017-10-31T09:25:22.243Z,5.20
2017-10-31T09:27:50.563Z,5.20
2017-10-31T09:30:19.643Z,5.40
2017-10-31T09:32:48.691Z,5.50
2017-10-31T09:35:16.974Z,5.50
2017-10-31T09:37:45.265Z,5.70
2017-10-31T09:40:13.563Z,5.70
2017-10-31T09:42:41.874Z,5.60
2017-10-31T09:45:10.196Z,5.50
2017-10-31T09:47:38.486Z,5.50
2017-10-31T09:50:06.772Z,5.40
2017-10-31T09:52:35.065Z,5.50
2017-10-31T09:55:03.357Z,5.60
2017-10-31T09:57:31.664Z,5.70
2017-10-31T10:00:02.078Z,5.90
2017-10-31T10:02:30.511Z,5.80
2017-10-31T10:05:02.512Z,6.10
2017-10-31T10:07:31.908Z,6.30
2017-10-31T10:10:00.224Z,6.40
2017-10-31T10:12:28.523Z,6.40
2017-10-31T10:14:56.883Z,6.30
2017-10-31T10:17:25.219Z,6.30
2017-10-31T10:19:54.290Z,6.00
2017-10-31T10:22:22.587Z,6.00
2017-10-31T10:24:50.870Z,5.80
2017-10-31T10:27:19.297Z,5.70
2017-10-31T10:29:47.574Z,5.60
2017-10-31T10:32:15.869Z,5.70
2017-10-31T10:34:44.186Z,5.60
2017-10-31T10:37:12.494Z,5.60
2017-10-31T10:39:40.819Z,5.50
2017-10-31T10:42:09.870Z,5.40
2017-10-31T10:44:38.939Z,5.40
2017-10-31T10:47:07.266Z,5.40
2017-10-31T10:49:36.319Z,5.40
2017-10-31T10:52:04.636Z,5.40
2017-10-31T10:54:32.965Z,5.40
2017-10-31T10:57:01.278Z,5.40
2017-10-31T10:59:29.602Z,5.30
2017-10-31T11:01:58.008Z,5.30
2017-10-31T11:04:26.385Z,5.20
2017-10-31T11:06:54.783Z,5.20
2017-10-31T11:09:23.161Z,5.30
2017-10-31T11:11:51.544Z,5.30
2017-10-31T11:14:19.921Z,5.30
2017-10-31T11:16:48.245Z,5.30
2017-10-31T11:19:16.578Z,5.30
2017-10-31T11:21:44.907Z,5.30
2017-10-31T11:24:13.230Z,5.20
2017-10-31T11:26:42.310Z,5.30
2017-10-31T11:29:10.679Z,5.30
2017-10-31T11:31:38.999Z,5.40
2017-10-31T11:34:07.296Z,5.50
2017-10-31T11:36:35.582Z,5.50
2017-10-31T11:39:03.926Z,5.60
2017-10-31T11:41:32.263Z,5.60
2017-10-31T11:44:00.582Z,5.70
2017-10-31T11:46:28.918Z,5.70
2017-10-31T11:48:57.288Z,5.90
2017-10-31T11:51:25.608Z,5.90
2017-10-31T11:53:53.929Z,5.90
2017-10-31T11:56:23.001Z,6.00
2017-10-31T11:58:51.390Z,6.00
2017-10-31T12:01:19.691Z,6.00
2017-10-31T12:03:48.029Z,6.00
2017-10-31T12:06:16.409Z,6.00
2017-10-31T12:08:44.736Z,6.00
2017-10-31T12:11:13.041Z,6.00
2017-10-31T12:13:41.369Z,5.90
2017-10-31T12:16:10.419Z,5.90
2017-10-31T12:18:38.784Z,5.80
2017-10-31T12:21:07.120Z,5.90
2017-10-31T12:23:35.427Z,5.90
2017-10-31T12:26:03.755Z,5.90
2017-10-31T12:28:32.058Z,5.80
2017-10-31T12:31:00.380Z,5.80
2017-10-31T12:33:28.716Z,5.80
2017-10-31T12:35:57.061Z,5.70
2017-10-31T12:38:25.355Z,5.60
2017-10-31T12:40:53.643Z,5.60
2017-10-31T12:43:21.939Z,5.70
2017-10-31T12:45:50.250Z,5.60
2017-10-31T12:48:19.298Z,5.60
2017-10-31T12:50:47.620Z,5.60
2017-10-31T12:53:15.914Z,5.50
2017-10-31T12:55:44.228Z,5.50
2017-10-31T12:58:12.532Z,5.50
2017-10-31T13:00:40.823Z,5.50
2017-10-31T13:03:09.886Z,5.50
2017-10-31T13:05:38.262Z,5.50
2017-10-31T13:08:06.611Z,5.40
2017-10-31T13:10:34.988Z,5.40
2017-10-31T13:13:03.314Z,5.40
2017-10-31T13:15:31.679Z,5.50
2017-10-31T13:18:00.033Z,5.50
2017-10-31T13:20:28.388Z,5.50
2017-10-31T13:22:56.717Z,5.50
2017-10-31T13:25:25.054Z,5.60
2017-10-31T13:27:53.607Z,5.50
2017-10-31T13:30:22.199Z,5.50
2017-10-31T13:32:51.855Z,5.50
2017-10-31T13:35:21.420Z,5.60
2017-10-31T13:37:50.130Z,5.60
2017-10-31T13:40:19.688Z,5.90
2017-10-31T13:42:49.285Z,5.90
2017-10-31T13:45:17.762Z,6.00
2017-10-31T13:47:46.327Z,6.10
2017-10-31T13:50:14.946Z,6.10
2017-10-31T13:52:43.360Z,6.20
2017-10-31T13:55:12.422Z,6.20
2017-10-31T13:57:40.738Z,6.10
2017-10-31T14:00:09.294Z,6.30
2017-10-31T14:02:37.978Z,6.40
2017-10-31T14:05:06.624Z,6.50
2017-10-31T14:07:35.265Z,6.40
2017-10-31T14:10:04.738Z,6.20
2017-10-31T14:12:33.417Z,6.20
2017-10-31T14:15:01.896Z,6.10
2017-10-31T14:17:30.194Z,6.10
2017-10-31T14:19:58.613Z,6.10
2017-10-31T14:22:27.678Z,6.10
2017-10-31T14:24:56.022Z,6.00
2017-10-31T14:27:25.095Z,6.00
2017-10-31T14:29:53.441Z,6.00
2017-10-31T14:32:21.802Z,6.00
2017-10-31T14:34:50.119Z,6.00
2017-10-31T14:37:18.400Z,5.90
2017-10-31T14:39:46.714Z,5.80
2017-10-31T14:42:15.009Z,5.80
2017-10-31T14:44:43.307Z,5.80
2017-10-31T14:47:11.611Z,5.90
2017-10-31T14:49:39.901Z,5.80
2017-10-31T14:52:08.211Z,5.90
2017-10-31T14:54:37.317Z,5.80
2017-10-31T14:57:06.391Z,5.80
2017-10-31T14:59:34.702Z,5.80
2017-10-31T15:02:02.992Z,5.90
2017-10-31T15:04:31.346Z,5.80
2017-10-31T15:06:59.650Z,5.90
2017-10-31T15:09:27.957Z,5.80
2017-10-31T15:11:56.254Z,5.80
2017-10-31T15:14:25.327Z,5.80
2017-10-31T15:16:53.619Z,5.80
2017-10-31T15:19:21.979Z,5.80
2017-10-31T15:21:50.354Z,5.80
2017-10-31T15:24:18.794Z,5.70
2017-10-31T15:26:47.076Z,5.70
2017-10-31T15:29:15.364Z,5.70
2017-10-31T15:31:43.673Z,5.70
2017-10-31T15:34:12.002Z,5.70
2017-10-31T15:36:40.301Z,5.60
2017-10-31T15:39:09.383Z,5.60
2017-10-31T15:41:38.454Z,5.60
2017-10-31T15:44:06.749Z,5.60
2017-10-31T15:46:35.816Z,5.60
2017-10-31T15:49:04.135Z,5.50
2017-10-31T15:51:32.429Z,5.60
2017-10-31T15:54:00.747Z,5.50
2017-10-31T15:56:29.090Z,5.50
2017-10-31T15:58:57.474Z,5.50
2017-10-31T16:01:25.807Z,5.50
2017-10-31T16:03:54.154Z,5.50
2017-10-31T16:06:22.468Z,5.50
2017-10-31T16:08:50.775Z,5.40
2017-10-31T16:11:19.062Z,5.40
2017-10-31T16:13:47.366Z,5.40
2017-10-31T16:16:16.492Z,5.40
2017-10-31T16:18:45.538Z,5.40
2017-10-31T16:21:13.835Z,5.40
2017-10-31T16:23:42.131Z,5.40
2017-10-31T16:26:10.483Z,5.40
2017-10-31T16:28:38.779Z,5.40
2017-10-31T16:31:07.079Z,5.40
2017-10-31T16:33:35.370Z,5.40
2017-10-31T16:36:03.663Z,5.50
2017-10-31T16:38:31.992Z,5.50
2017-10-31T16:41:01.985Z,5.50
2017-10-31T16:43:30.300Z,5.50
2017-10-31T16:45:58.647Z,5.40
2017-10-31T16:48:26.957Z,5.40
2017-10-31T16:50:55.266Z,5.40
2017-10-31T16:53:23.550Z,5.40
2017-10-31T16:55:51.852Z,5.40
2017-10-31T16:58:20.168Z,5.50
2017-10-31T17:00:49.250Z,5.50
2017-10-31T17:03:18.307Z,5.50
2017-10-31T17:05:46.606Z,5.40
2017-10-31T17:08:14.905Z,5.50
2017-10-31T17:10:43.198Z,5.40
2017-10-31T17:13:11.488Z,5.40
2017-10-31T17:15:39.784Z,5.40
2017-10-31T17:18:08.108Z,5.40
2017-10-31T17:20:37.198Z,5.30
2017-10-31T17:23:05.597Z,5.30
2017-10-31T17:25:34.671Z,5.40
2017-10-31T17:28:02.969Z,5.40
2017-10-31T17:30:31.296Z,5.30
2017-10-31T17:32:59.595Z,5.40
2017-10-31T17:35:27.931Z,5.30
2017-10-31T17:37:56.243Z,5.30
2017-10-31T17:40:24.586Z,5.40
2017-10-31T17:42:52.905Z,5.30
2017-10-31T17:45:21.207Z,5.30
2017-10-31T17:47:49.489Z,5.30
2017-10-31T17:50:17.795Z,5.30
2017-10-31T17:52:46.930Z,5.30
2017-10-31T17:55:15.292Z,5.30
2017-10-31T17:57:44.348Z,5.30
2017-10-31T18:00:13.536Z,5.30
2017-10-31T18:02:41.832Z,5.20
2017-10-31T18:05:10.119Z,5.20
2017-10-31T18:07:38.424Z,5.20
2017-10-31T18:10:06.745Z,5.10
2017-10-31T18:12:35.028Z,5.10
2017-10-31T18:15:03.314Z,5.10
2017-10-31T18:17:31.603Z,5.10
2017-10-31T18:19:59.916Z,5.10
2017-10-31T18:22:29.026Z,5.10
2017-10-31T18:24:57.373Z,5.10
2017-10-31T18:27:25.657Z,5.20
2017-10-31T18:29:53.957Z,5.10
2017-10-31T18:32:22.407Z,5.10
2017-10-31T18:34:51.870Z,5.00
2017-10-31T18:37:20.491Z,5.00
2017-10-31T18:39:49.018Z,5.00
2017-10-31T18:42:17.527Z,5.00
2017-10-31T18:44:46.842Z,4.90
2017-10-31T18:47:15.237Z,4.90
2017-10-31T18:49:43.596Z,4.90
2017-10-31T18:52:12.693Z,4.90
2017-10-31T18:54:41.743Z,4.90
2017-10-31T18:57:10.058Z,4.90
2017-10-31T18:59:38.358Z,4.90
2017-10-31T19:02:06.708Z,4.90
2017-10-31T19:04:35.004Z,4.90
2017-10-31T19:07:03.296Z,4.90
2017-10-31T19:09:31.726Z,4.90
2017-10-31T19:12:00.083Z,4.90
2017-10-31T19:14:28.379Z,4.90
2017-10-31T19:16:56.675Z,4.90
2017-10-31T19:19:24.972Z,4.90
2017-10-31T19:21:53.271Z,4.80
2017-10-31T19:24:22.336Z,4.90
2017-10-31T19:26:50.627Z,4.80
2017-10-31T19:29:18.922Z,4.80
2017-10-31T19:31:47.211Z,4.80
2017-10-31T19:34:15.515Z,4.80
2017-10-31T19:36:43.811Z,4.90
2017-10-31T19:39:12.104Z,4.90
2017-10-31T19:41:40.420Z,4.90
2017-10-31T19:44:09.663Z,4.90
2017-10-31T19:46:38.807Z,4.90
2017-10-31T19:49:07.134Z,4.90
2017-10-31T19:51:35.447Z,4.90
2017-10-31T19:54:03.758Z,4.90
2017-10-31T19:56:32.059Z,5.00
2017-10-31T19:59:00.363Z,4.90
2017-10-31T20:01:28.695Z,5.00
2017-10-31T20:03:57.016Z,5.00
2017-10-31T20:06:25.367Z,5.00
2017-10-31T20:08:53.649Z,5.00
2017-10-31T20:11:21.952Z,5.00
2017-10-31T20:13:50.267Z,5.10
2017-10-31T20:16:18.579Z,5.20
2017-10-31T20:18:46.900Z,5.20
2017-10-31T20:21:15.190Z,5.20
2017-10-31T20:23:43.480Z,5.20
2017-10-31T20:26:11.766Z,5.20
2017-10-31T20:28:40.059Z,5.30
2017-10-31T20:31:08.404Z,5.30
2017-10-31T20:33:36.687Z,5.30
2017-10-31T20:36:05.058Z,5.40
2017-10-31T20:38:33.360Z,5.40
2017-10-31T20:41:01.667Z,5.40
2017-10-31T20:43:29.989Z,5.50
2017-10-31T20:45:58.306Z,5.50
2017-10-31T20:48:26.612Z,5.50
2017-10-31T20:50:55.038Z,5.60
2017-10-31T20:53:24.171Z,5.60
2017-10-31T20:55:52.400Z,5.60
2017-10-31T20:58:20.695Z,5.60
2017-10-31T21:00:49.194Z,5.60
2017-10-31T21:03:17.476Z,5.60
2017-10-31T21:05:46.112Z,5.60
2017-10-31T21:08:15.287Z,5.70
2017-10-31T21:10:44.455Z,5.60
2017-10-31T21:13:12.736Z,5.60
2017-10-31T21:15:41.046Z,5.60
2017-10-31T21:18:09.332Z,5.60
2017-10-31T21:20:37.625Z,5.60
2017-10-31T21:23:05.955Z,5.60
2017-10-31T21:25:34.268Z,5.70
2017-10-31T21:28:03.345Z,5.70
2017-10-31T21:30:31.736Z,5.60
2017-10-31T21:33:00.103Z,5.70
2017-10-31T21:35:28.431Z,5.60
2017-10-31T21:37:56.719Z,5.70
2017-10-31T21:40:25.821Z,5.70
2017-10-31T21:42:54.129Z,5.60
2017-10-31T21:45:23.187Z,5.70
2017-10-31T21:47:51.487Z,5.70
2017-10-31T21:50:19.774Z,5.70
2017-10-31T21:52:48.057Z,5.70
2017-10-31T21:55:16.335Z,5.70
2017-10-31T21:57:44.610Z,5.70
2017-10-31T22:00:12.904Z,5.80
2017-10-31T22:02:41.194Z,5.70
2017-10-31T22:05:09.497Z,5.70
2017-10-31T22:07:37.806Z,5.80
2017-10-31T22:10:06.096Z,5.70
2017-10-31T22:12:34.386Z,5.70
2017-10-31T23:37:00.678Z,5.70
2017-10-31T23:39:29.211Z,5.70
2017-10-31T23:41:57.663Z,5.80
2017-10-31T23:44:26.242Z,5.80
2017-10-31T23:46:54.604Z,5.90
2017-10-31T23:49:22.939Z,5.90
2017-10-31T23:51:51.223Z,5.90
2017-10-31T23:54:19.551Z,5.90
2017-10-31T23:56:48.587Z,5.90
2017-10-31T23:59:17.113Z,5.90
